Terminal Aerodrome Forecast
Issued by NWS Twin Cities, MN

Home | Current Version | Previous Version | Graphics & Text | Print | Product List | Glossary On
Versions: 1 2 3 4 5 6 7 8 9 10 11 12 13 14 15 16 17 18 19 20 21 22 23 24 25
320
FTUS43 KMPX 030520
TAFMSP
TAF
KMSP 030520Z 0306/0412 VRB03KT P6SM SKC
     FM031200 25007KT P6SM SCT250
     FM031600 27013G20KT P6SM SCT120 BKN250
     FM032100 31018G28KT 6SM -SHRA BR SCT070 BKN100
     FM040100 31010KT P6SM SKC=

USA.gov is the U.S. government's official web portal to all federal, state and local government web resources and services.